Time;durP1;ratioP1;P1;durP2;ratioP2;P2;SDS_P1;SDS_P2;PMS_P1;PMS_P2;Temp;Humidity;BMP_temperature;BMP_pressure;BME280_temperature;BME280_humidity;BME280_pressure;Samples;Min_cycle;Max_cycle;Signal;HPM_P1;HPM_P2
2023/12/28 00:00:27;;;;;;;2.95;1.20;;;9.60;99.90;;;;;;6285484;22;20404;-78
2023/12/28 00:02:54;;;;;;;2.20;1.13;;;9.60;99.90;;;;;;6311703;22;20045;-78
2023/12/28 00:05:21;;;;;;;3.38;1.20;;;9.70;99.90;;;;;;6285426;22;20393;-78
2023/12/28 00:07:49;;;;;;;3.88;1.27;;;9.70;99.90;;;;;;6285380;22;20407;-78
2023/12/28 00:10:16;;;;;;;2.55;1.48;;;9.70;99.90;;;;;;6286528;22;20026;-78
2023/12/28 00:12:43;;;;;;;3.90;1.17;;;9.70;99.90;;;;;;6313304;22;20023;-78
2023/12/28 00:15:10;;;;;;;3.17;1.25;;;9.70;99.90;;;;;;6287393;22;20408;-78
2023/12/28 00:17:37;;;;;;;2.85;1.23;;;9.70;99.90;;;;;;6287454;22;20033;-78
2023/12/28 00:20:05;;;;;;;2.22;1.10;;;9.70;99.90;;;;;;6313321;22;20510;-78
2023/12/28 00:22:32;;;;;;;2.78;1.20;;;9.70;99.90;;;;;;6287569;22;20021;-78
2023/12/28 00:24:59;;;;;;;3.03;1.13;;;9.70;99.90;;;;;;6313276;22;20015;-78
2023/12/28 00:27:25;;;;;;;2.33;1.10;;;9.70;99.90;;;;;;6313221;22;20371;-78
2023/12/28 00:29:52;;;;;;;3.72;1.75;;;9.70;99.90;;;;;;6313034;22;20029;-78
2023/12/28 00:32:19;;;;;;;2.75;0.90;;;9.70;99.90;;;;;;6312753;22;20023;-78
2023/12/28 00:34:46;;;;;;;2.80;1.10;;;9.70;99.90;;;;;;6312723;22;20449;-78
2023/12/28 00:37:13;;;;;;;2.75;1.10;;;9.70;99.90;;;;;;6287138;22;20027;-78
2023/12/28 00:39:41;;;;;;;2.17;1.00;;;9.70;99.90;;;;;;6258638;22;20011;-78
2023/12/28 00:42:11;;;;;;;2.03;1.05;;;9.70;99.90;;;;;;6256137;22;20396;-78
2023/12/28 00:44:41;;;;;;;3.00;1.00;;;9.70;99.90;;;;;;6281672;22;20019;-78
2023/12/28 00:47:08;;;;;;;2.45;1.23;;;9.70;99.90;;;;;;6281647;22;20106;-78
2023/12/28 00:49:35;;;;;;;3.10;1.45;;;9.80;99.90;;;;;;6282085;22;20019;-78
2023/12/28 00:52:02;;;;;;;3.80;1.83;;;9.80;99.90;;;;;;6256378;22;20023;-78
2023/12/28 00:54:30;;;;;;;2.58;1.45;;;9.80;99.90;;;;;;6282432;22;20049;-78
2023/12/28 00:56:57;;;;;;;2.33;1.20;;;9.80;99.90;;;;;;6281584;22;20027;-78
2023/12/28 00:59:24;;;;;;;2.17;1.02;;;9.80;99.90;;;;;;6307069;22;20064;-77
2023/12/28 01:01:51;;;;;;;3.00;1.10;;;9.80;99.90;;;;;;6308977;22;20015;-77
2023/12/28 01:04:23;;;;;;;3.35;1.25;;;9.80;99.90;;;;;;6256011;22;20476;-78
2023/12/28 01:06:51;;;;;;;3.38;1.23;;;9.80;99.90;;;;;;6256064;22;20512;-77
2023/12/28 01:09:19;;;;;;;3.25;1.50;;;9.80;99.90;;;;;;6256234;22;20023;-78
2023/12/28 01:11:46;;;;;;;3.15;0.90;;;9.80;99.90;;;;;;6281525;22;20363;-78
2023/12/28 01:14:13;;;;;;;1.92;0.90;;;9.80;99.90;;;;;;6281315;22;20023;-78
2023/12/28 01:16:40;;;;;;;1.80;1.08;;;9.80;99.90;;;;;;6281550;22;20023;-78
2023/12/28 01:19:07;;;;;;;2.35;1.33;;;9.80;99.90;;;;;;6307183;22;20011;-78
2023/12/28 01:21:34;;;;;;;2.97;1.30;;;9.90;99.90;;;;;;6281291;22;20089;-78
2023/12/28 01:24:02;;;;;;;4.05;1.98;;;9.80;99.90;;;;;;6307111;22;20015;-78
2023/12/28 01:26:29;;;;;;;2.83;1.25;;;9.90;99.90;;;;;;6281544;22;20015;-78
2023/12/28 01:28:56;;;;;;;2.45;1.23;;;9.90;99.90;;;;;;6256275;22;20027;-78
2023/12/28 01:31:24;;;;;;;3.50;1.20;;;9.90;99.90;;;;;;6281257;22;20019;-78
2023/12/28 01:33:51;;;;;;;2.97;1.30;;;9.90;99.90;;;;;;6307485;22;20094;-78
2023/12/28 01:36:19;;;;;;;2.55;1.20;;;9.80;99.90;;;;;;6281341;22;20103;-78
2023/12/28 01:38:46;;;;;;;3.42;1.20;;;9.80;99.90;;;;;;6293452;22;20288;-78
2023/12/28 01:41:15;;;;;;;2.85;1.40;;;9.80;99.90;;;;;;6283344;22;20019;-78
2023/12/28 01:43:42;;;;;;;4.68;1.40;;;9.70;99.90;;;;;;6312502;22;20021;-78
2023/12/28 01:46:16;;;;;;;2.95;1.75;;;9.60;99.90;;;;;;6340000;22;20015;-78
2023/12/28 01:48:45;;;;;;;4.53;1.60;;;9.60;99.90;;;;;;6312718;22;20463;-78
2023/12/28 01:51:14;;;;;;;3.17;1.48;;;9.60;99.90;;;;;;6312604;22;20044;-78
2023/12/28 01:53:43;;;;;;;3.40;1.65;;;9.60;99.90;;;;;;6312433;22;20433;-78
2023/12/28 01:56:10;;;;;;;2.40;1.00;;;9.70;99.90;;;;;;6286391;22;20456;-78
2023/12/28 01:58:40;;;;;;;3.05;1.35;;;9.70;99.90;;;;;;6286240;22;20022;-78
2023/12/28 02:01:07;;;;;;;2.65;1.08;;;9.70;99.90;;;;;;6286906;22;20110;-78
2023/12/28 02:03:34;;;;;;;3.90;1.60;;;9.70;99.90;;;;;;6312451;22;20048;-79
2023/12/28 02:06:02;;;;;;;2.60;1.50;;;9.80;99.90;;;;;;6311933;22;20019;-78
2023/12/28 02:08:29;;;;;;;2.00;1.20;;;9.70;99.90;;;;;;6261170;22;20088;-78
2023/12/28 02:10:56;;;;;;;3.45;1.75;;;9.70;99.90;;;;;;6286492;22;20441;-78
2023/12/28 02:13:24;;;;;;;3.30;1.27;;;9.70;99.90;;;;;;6338049;22;20025;-78
2023/12/28 02:15:56;;;;;;;2.60;1.30;;;9.60;99.90;;;;;;6312300;22;20015;-78
2023/12/28 02:18:30;;;;;;;2.80;1.38;;;9.60;99.90;;;;;;6311904;22;20015;-78
2023/12/28 02:20:59;;;;;;;3.33;1.30;;;9.60;99.90;;;;;;6286316;22;20019;-78
2023/12/28 02:23:26;;;;;;;4.28;1.15;;;9.50;99.90;;;;;;6311884;22;20025;-78
2023/12/28 02:25:53;;;;;;;4.40;1.58;;;9.50;99.90;;;;;;6312044;22;20029;-78
2023/12/28 02:28:20;;;;;;;2.50;1.10;;;9.50;99.90;;;;;;6300956;22;20018;-78
2023/12/28 02:30:47;;;;;;;3.63;1.80;;;9.50;99.90;;;;;;6357542;22;20022;-78
2023/12/28 02:33:37;;;;;;;2.95;1.35;;;9.50;99.90;;;;;;6278702;22;20037;-78
2023/12/28 02:36:16;;;;;;;4.20;1.52;;;9.50;99.90;;;;;;6314478;22;20014;-78
2023/12/28 02:38:45;;;;;;;4.43;1.25;;;9.40;99.90;;;;;;6263894;22;20030;-78
2023/12/28 02:41:13;;;;;;;4.93;1.70;;;9.40;99.90;;;;;;6252293;22;20016;-78
2023/12/28 02:43:40;;;;;;;6.40;1.50;;;9.40;99.90;;;;;;6280723;22;20023;-78
2023/12/28 02:46:07;;;;;;;3.03;1.17;;;9.40;99.90;;;;;;6280695;22;20066;-78
2023/12/28 02:48:34;;;;;;;4.47;1.80;;;9.40;99.90;;;;;;6280743;22;20499;-78
2023/12/28 02:51:01;;;;;;;3.00;1.50;;;9.40;99.90;;;;;;6255372;22;20023;-78
2023/12/28 02:53:28;;;;;;;4.35;1.70;;;9.40;99.90;;;;;;6255125;22;20023;-78
2023/12/28 02:55:55;;;;;;;6.97;2.08;;;9.50;99.90;;;;;;6255286;22;20030;-78
2023/12/28 02:58:22;;;;;;;3.83;1.70;;;9.40;99.90;;;;;;6229945;22;20023;-78
2023/12/28 03:00:49;;;;;;;5.20;1.35;;;9.40;99.90;;;;;;6280834;22;20016;-78
2023/12/28 03:03:16;;;;;;;4.43;1.50;;;9.40;99.90;;;;;;6255678;22;20349;-78
2023/12/28 03:05:43;;;;;;;4.53;1.20;;;9.50;99.90;;;;;;6280785;22;20050;-78
2023/12/28 03:08:10;;;;;;;3.75;1.10;;;9.40;99.90;;;;;;6280274;22;20023;-78
2023/12/28 03:10:37;;;;;;;4.05;1.10;;;9.40;99.90;;;;;;6254921;22;20019;-78
2023/12/28 03:13:04;;;;;;;4.25;1.40;;;9.40;99.90;;;;;;6229917;22;20412;-78
2023/12/28 03:15:32;;;;;;;3.28;1.05;;;9.50;99.90;;;;;;6254863;22;20425;-78
2023/12/28 03:17:59;;;;;;;3.90;1.48;;;9.40;99.90;;;;;;6255168;22;20471;-78
2023/12/28 03:20:27;;;;;;;3.75;1.27;;;9.40;99.90;;;;;;6280838;22;20018;-78
2023/12/28 03:22:54;;;;;;;3.35;1.15;;;9.40;99.90;;;;;;6229906;22;20463;-78
2023/12/28 03:25:21;;;;;;;3.67;1.25;;;9.40;99.90;;;;;;6280706;22;20015;-78
2023/12/28 03:27:48;;;;;;;2.72;1.10;;;9.50;99.90;;;;;;6254651;22;20026;-78
2023/12/28 03:30:15;;;;;;;8.00;1.40;;;9.50;99.90;;;;;;6255131;22;20039;-78
2023/12/28 03:32:42;;;;;;;3.35;1.13;;;9.50;99.90;;;;;;6280292;22;20073;-78
2023/12/28 03:35:09;;;;;;;4.65;1.13;;;9.50;99.90;;;;;;6254916;22;20022;-77
2023/12/28 03:37:36;;;;;;;4.90;1.35;;;9.50;99.90;;;;;;6257275;22;20023;-78
2023/12/28 03:40:04;;;;;;;2.90;1.00;;;9.50;99.90;;;;;;6338712;22;20015;-78
2023/12/28 03:42:31;;;;;;;3.42;1.08;;;9.60;99.90;;;;;;6310985;22;20019;-78
2023/12/28 03:44:58;;;;;;;4.95;1.13;;;9.70;99.90;;;;;;6285258;22;20098;-77
2023/12/28 03:47:25;;;;;;;4.13;1.20;;;9.70;99.90;;;;;;6311039;22;20386;-78
2023/12/28 03:49:52;;;;;;;2.72;0.90;;;9.80;99.90;;;;;;6311143;22;20026;-78
2023/12/28 03:52:19;;;;;;;3.63;1.08;;;9.80;99.90;;;;;;6285478;22;20029;-78
2023/12/28 03:54:46;;;;;;;4.60;1.15;;;9.90;99.90;;;;;;6285454;22;20022;-78
2023/12/28 03:57:13;;;;;;;2.70;0.98;;;9.90;99.90;;;;;;6260266;22;20436;-77
2023/12/28 03:59:40;;;;;;;3.80;1.02;;;10.00;99.90;;;;;;6285496;22;20025;-77
2023/12/28 04:02:08;;;;;;;5.18;1.00;;;10.00;99.90;;;;;;6285579;22;20028;-77
2023/12/28 04:04:35;;;;;;;3.17;0.85;;;10.00;99.90;;;;;;6311459;22;20449;-77
2023/12/28 04:07:07;;;;;;;3.47;1.13;;;10.00;99.90;;;;;;6310679;22;20045;-77
2023/12/28 04:09:34;;;;;;;4.50;1.35;;;10.00;99.90;;;;;;6310862;22;20022;-77
2023/12/28 04:12:01;;;;;;;2.85;1.00;;;10.00;99.90;;;;;;6285347;22;20022;-77
2023/12/28 04:14:28;;;;;;;5.63;1.30;;;10.00;99.90;;;;;;6285632;22;20407;-77
2023/12/28 04:16:55;;;;;;;3.92;0.98;;;10.10;99.90;;;;;;6311314;22;20014;-77
2023/12/28 04:19:22;;;;;;;3.03;1.13;;;10.10;99.90;;;;;;6310867;22;20014;-77
2023/12/28 04:21:49;;;;;;;4.50;1.20;;;10.00;99.90;;;;;;6285248;22;20383;-77
2023/12/28 04:24:16;;;;;;;3.78;1.50;;;10.00;99.90;;;;;;6285180;22;20015;-77
2023/12/28 04:26:43;;;;;;;14.98;1.92;;;10.00;99.90;;;;;;6285829;22;20748;-77
2023/12/28 04:29:10;;;;;;;4.55;1.30;;;10.00;99.90;;;;;;6285115;22;20025;-77
2023/12/28 04:31:44;;;;;;;2.47;0.88;;;10.10;99.90;;;;;;6285223;22;20041;-77
2023/12/28 04:34:12;;;;;;;5.82;1.10;;;10.10;99.90;;;;;;6286034;22;20025;-78
2023/12/28 04:36:42;;;;;;;6.00;1.35;;;10.10;99.90;;;;;;6311117;22;20090;-78
2023/12/28 04:39:09;;;;;;;5.82;1.30;;;10.10;99.90;;;;;;6285105;22;20056;-77
2023/12/28 04:41:36;;;;;;;5.50;1.13;;;10.10;99.90;;;;;;6285060;22;20019;-78
2023/12/28 04:44:03;;;;;;;6.35;1.40;;;10.10;99.90;;;;;;6285067;22;20018;-78
2023/12/28 04:46:30;;;;;;;7.50;1.00;;;10.10;99.90;;;;;;6259576;22;20023;-77
2023/12/28 04:48:57;;;;;;;4.68;1.10;;;10.10;99.90;;;;;;6285095;22;20022;-77
2023/12/28 04:51:25;;;;;;;5.32;1.27;;;10.00;99.90;;;;;;6285530;22;20375;-77
2023/12/28 04:53:52;;;;;;;4.15;0.93;;;10.10;99.90;;;;;;6259667;22;20019;-77
2023/12/28 04:56:19;;;;;;;5.47;1.00;;;10.10;99.90;;;;;;6285139;22;20023;-77
2023/12/28 04:58:46;;;;;;;6.78;0.95;;;10.10;99.90;;;;;;6286739;22;20101;-77
2023/12/28 05:01:14;;;;;;;8.85;1.33;;;10.20;99.90;;;;;;6312441;22;20391;-77
2023/12/28 05:03:41;;;;;;;3.10;1.00;;;10.20;99.90;;;;;;6287136;22;20021;-77
2023/12/28 05:06:08;;;;;;;9.18;1.10;;;10.30;99.90;;;;;;6287001;22;20019;-77
2023/12/28 05:08:36;;;;;;;4.97;1.15;;;10.30;99.90;;;;;;6287076;22;20018;-77
2023/12/28 05:11:03;;;;;;;7.72;1.33;;;10.30;99.90;;;;;;6312935;22;20018;-77
2023/12/28 05:13:30;;;;;;;5.47;1.15;;;10.40;99.90;;;;;;6286975;22;20029;-77
2023/12/28 05:15:57;;;;;;;7.50;1.27;;;10.40;99.90;;;;;;6287141;22;20022;-77
2023/12/28 05:18:24;;;;;;;4.15;1.08;;;10.40;99.90;;;;;;6312666;22;20015;-77
2023/12/28 05:20:51;;;;;;;4.75;1.10;;;10.40;99.90;;;;;;6261212;22;20468;-77
2023/12/28 05:23:18;;;;;;;4.30;1.30;;;10.40;99.90;;;;;;6287053;22;20021;-77
2023/12/28 05:25:46;;;;;;;5.38;1.15;;;10.40;99.90;;;;;;6312316;22;20033;-77
2023/12/28 05:28:13;;;;;;;6.80;1.00;;;10.50;99.90;;;;;;6286787;22;20027;-77
2023/12/28 05:30:40;;;;;;;7.38;1.30;;;10.50;99.90;;;;;;6287156;22;20018;-77
2023/12/28 05:33:07;;;;;;;3.78;1.00;;;10.50;99.90;;;;;;6312398;22;20025;-78
2023/12/28 05:35:34;;;;;;;5.13;1.10;;;10.50;99.90;;;;;;6312660;22;20394;-78
2023/12/28 05:38:01;;;;;;;8.55;1.58;;;10.50;99.90;;;;;;6339849;22;20023;-77
2023/12/28 05:40:28;;;;;;;3.83;0.90;;;10.50;99.90;;;;;;6261100;22;20019;-77
2023/12/28 05:42:54;;;;;;;6.95;1.48;;;10.60;99.90;;;;;;6312614;22;20015;-78
2023/12/28 05:45:21;;;;;;;7.57;1.50;;;10.60;99.90;;;;;;6339620;22;20433;-78
2023/12/28 05:47:48;;;;;;;7.28;1.45;;;10.60;99.90;;;;;;6339465;22;20433;-77
2023/12/28 05:50:15;;;;;;;5.82;1.35;;;10.60;99.90;;;;;;6312016;22;20043;-77
2023/12/28 05:52:42;;;;;;;6.40;0.98;;;10.60;99.90;;;;;;6286812;22;20045;-77
2023/12/28 05:55:09;;;;;;;3.78;0.82;;;10.60;99.90;;;;;;6260934;22;20441;-78
2023/12/28 05:57:36;;;;;;;7.90;1.33;;;10.60;99.90;;;;;;6260937;22;20068;-77
2023/12/28 06:00:06;;;;;;;4.88;0.95;;;10.70;99.90;;;;;;6286435;22;20019;-77
2023/12/28 06:02:38;;;;;;;4.55;1.17;;;10.70;99.70;;;;;;6289636;22;20484;-77
2023/12/28 06:05:05;;;;;;;7.20;1.35;;;10.70;99.80;;;;;;6281168;22;20069;-77
2023/12/28 06:07:33;;;;;;;4.35;1.30;;;10.70;99.80;;;;;;6311622;22;20023;-77
2023/12/28 06:10:00;;;;;;;5.65;1.25;;;10.70;99.70;;;;;;6311905;22;20023;-77
2023/12/28 06:12:27;;;;;;;9.77;1.48;;;10.70;99.80;;;;;;6286805;22;20498;-77
2023/12/28 06:14:54;;;;;;;6.28;1.38;;;10.70;99.80;;;;;;6312559;22;20015;-78
2023/12/28 06:17:21;;;;;;;10.07;0.88;;;10.70;99.90;;;;;;6266471;22;20045;-77
2023/12/28 06:19:49;;;;;;;7.63;0.85;;;10.70;99.90;;;;;;6326227;22;20030;-78
2023/12/28 06:22:17;;;;;;;7.80;1.15;;;10.70;99.90;;;;;;6306254;22;20011;-77
2023/12/28 06:24:44;;;;;;;8.45;1.33;;;10.70;99.80;;;;;;6317888;22;20510;-77
2023/12/28 06:27:11;;;;;;;10.18;1.85;;;10.70;99.80;;;;;;6340455;22;20037;-77
2023/12/28 06:29:38;;;;;;;7.20;1.23;;;10.70;99.70;;;;;;6261350;22;20019;-77
2023/12/28 06:32:05;;;;;;;9.25;1.40;;;10.70;99.30;;;;;;6286596;22;20071;-77
2023/12/28 06:34:32;;;;;;;7.40;1.38;;;10.80;99.00;;;;;;6311688;22;20019;-77
2023/12/28 06:37:01;;;;;;;9.35;1.48;;;10.80;99.00;;;;;;6312185;22;20015;-77
2023/12/28 06:39:28;;;;;;;8.40;1.40;;;10.80;99.10;;;;;;6311182;22;20038;-77
2023/12/28 06:41:55;;;;;;;6.85;0.65;;;10.80;99.00;;;;;;6311920;22;20034;-77
2023/12/28 06:44:22;;;;;;;4.03;1.00;;;10.80;99.00;;;;;;6286040;22;20019;-78
2023/12/28 06:46:49;;;;;;;8.73;1.10;;;10.80;99.00;;;;;;6312082;22;20378;-77
2023/12/28 06:49:16;;;;;;;10.82;0.90;;;10.80;99.00;;;;;;6338991;22;20468;-78
2023/12/28 06:51:45;;;;;;;4.50;2.08;;;10.80;98.80;;;;;;6311702;22;20403;-78
2023/12/28 06:54:15;;;;;;;5.32;0.75;;;10.80;99.00;;;;;;6261136;22;20360;-78
2023/12/28 06:56:42;;;;;;;9.75;0.95;;;10.80;99.10;;;;;;6286663;22;20072;-78
2023/12/28 06:59:12;;;;;;;5.55;0.95;;;10.80;98.80;;;;;;6285734;22;20379;-78
2023/12/28 07:01:39;;;;;;;9.68;1.23;;;10.80;98.70;;;;;;6311303;22;20042;-78
2023/12/28 07:04:07;;;;;;;11.57;1.30;;;10.80;98.60;;;;;;6311386;22;20049;-78
2023/12/28 07:06:34;;;;;;;9.82;1.60;;;10.90;98.30;;;;;;6311450;22;20409;-78
2023/12/28 07:09:02;;;;;;;10.20;2.10;;;10.90;98.40;;;;;;6338952;22;20094;-78
2023/12/28 07:11:29;;;;;;;7.60;1.25;;;10.90;98.30;;;;;;6311689;22;20044;-78
2023/12/28 07:13:56;;;;;;;4.70;1.13;;;10.90;98.30;;;;;;6311748;22;20025;-78
2023/12/28 07:16:23;;;;;;;8.63;1.02;;;10.90;98.20;;;;;;6311612;22;20050;-78
2023/12/28 07:18:49;;;;;;;9.02;1.38;;;10.90;98.30;;;;;;6285891;22;20019;-78
2023/12/28 07:21:17;;;;;;;8.10;1.10;;;10.90;98.10;;;;;;6285776;22;20043;-78
2023/12/28 07:23:48;;;;;;;7.38;1.10;;;10.90;98.20;;;;;;6337519;22;20069;-78
2023/12/28 07:26:16;;;;;;;8.32;1.52;;;10.90;98.30;;;;;;6338955;22;20015;-78
2023/12/28 07:28:44;;;;;;;6.63;1.20;;;10.90;98.40;;;;;;6311209;22;20026;-78
2023/12/28 07:31:24;;;;;;;7.22;1.42;;;10.80;98.40;;;;;;6286048;22;20022;-78
2023/12/28 07:33:51;;;;;;;7.50;0.70;;;10.90;98.40;;;;;;6311792;22;20031;-78
2023/12/28 07:36:18;;;;;;;8.57;1.25;;;10.80;98.50;;;;;;6339055;22;20023;-78
2023/12/28 07:38:46;;;;;;;13.55;1.63;;;10.80;98.70;;;;;;6311398;22;20025;-78
2023/12/28 07:41:13;;;;;;;11.10;1.65;;;10.80;98.40;;;;;;6285466;22;20023;-78
2023/12/28 07:43:39;;;;;;;11.93;1.33;;;10.80;98.30;;;;;;6311280;22;20019;-78
2023/12/28 07:46:07;;;;;;;12.20;1.30;;;10.90;98.20;;;;;;6311128;22;20019;-78
2023/12/28 07:48:34;;;;;;;8.20;1.27;;;10.80;98.30;;;;;;6311740;22;20018;-78
2023/12/28 07:51:05;;;;;;;6.07;1.05;;;10.80;98.30;;;;;;6311313;22;20018;-78
2023/12/28 07:53:32;;;;;;;5.63;1.05;;;10.80;98.40;;;;;;6285506;22;20026;-78
2023/12/28 07:55:59;;;;;;;9.30;1.77;;;10.80;98.20;;;;;;6311017;22;20440;-78
2023/12/28 07:58:26;;;;;;;6.15;1.10;;;10.80;98.00;;;;;;6285424;22;20034;-78
2023/12/28 08:00:53;;;;;;;7.70;1.25;;;10.90;98.00;;;;;;6311438;22;20011;-78
2023/12/28 08:03:21;;;;;;;9.10;1.30;;;10.90;97.80;;;;;;6285746;22;20022;-78
2023/12/28 08:05:48;;;;;;;9.35;1.45;;;10.90;97.60;;;;;;6285406;22;20019;-78
2023/12/28 08:08:15;;;;;;;9.55;1.25;;;10.90;97.40;;;;;;6285367;22;20018;-78
2023/12/28 08:10:42;;;;;;;8.25;1.45;;;10.90;97.50;;;;;;6259726;22;20026;-78
2023/12/28 08:13:09;;;;;;;12.43;1.30;;;10.90;97.30;;;;;;6311189;22;20019;-78
2023/12/28 08:15:36;;;;;;;8.32;1.15;;;11.00;97.10;;;;;;6311268;22;20018;-78
2023/12/28 08:18:03;;;;;;;9.10;1.60;;;11.00;97.10;;;;;;6311085;22;20023;-78
2023/12/28 08:20:31;;;;;;;10.80;1.35;;;11.00;97.20;;;;;;6338404;22;20019;-78
2023/12/28 08:22:58;;;;;;;5.20;0.80;;;11.00;97.20;;;;;;6311248;22;20022;-78
2023/12/28 08:25:43;;;;;;;9.50;1.70;;;11.00;97.10;;;;;;6289149;22;20398;-78
2023/12/28 08:28:10;;;;;;;8.38;1.70;;;11.00;97.00;;;;;;6310972;22;20019;-78
2023/12/28 08:30:37;;;;;;;8.10;1.42;;;11.10;97.30;;;;;;6285733;22;20033;-78
2023/12/28 08:33:05;;;;;;;8.43;1.40;;;11.10;97.00;;;;;;6313107;22;20705;-78
2023/12/28 08:35:32;;;;;;;8.65;1.52;;;11.10;96.90;;;;;;6313275;22;20094;-78
2023/12/28 08:37:59;;;;;;;4.15;1.10;;;11.10;97.00;;;;;;6313200;22;20030;-78
2023/12/28 08:40:26;;;;;;;8.93;0.93;;;11.20;97.30;;;;;;6312823;22;20022;-78
2023/12/28 08:42:53;;;;;;;6.75;1.05;;;11.20;97.00;;;;;;6287216;22;20014;-78
2023/12/28 08:45:21;;;;;;;11.48;1.67;;;11.20;96.90;;;;;;6287129;22;20072;-78
2023/12/28 08:47:48;;;;;;;10.63;1.48;;;11.20;96.70;;;;;;6313284;22;20014;-78
2023/12/28 08:50:15;;;;;;;9.65;1.48;;;11.20;96.70;;;;;;6313199;22;20070;-78
2023/12/28 08:52:42;;;;;;;5.88;1.08;;;11.20;96.80;;;;;;6287677;22;20018;-82
2023/12/28 08:55:09;;;;;;;8.48;1.05;;;11.20;96.90;;;;;;6287205;22;20395;-80
2023/12/28 08:57:36;;;;;;;6.57;1.25;;;11.20;96.90;;;;;;6287122;22;20064;-80
2023/12/28 09:00:10;;;;;;;6.68;1.33;;;11.20;97.00;;;;;;6288422;22;20273;-79
2023/12/28 09:02:37;;;;;;;5.97;1.10;;;11.20;96.90;;;;;;6340188;22;20014;-79
2023/12/28 09:05:05;;;;;;;7.82;1.30;;;11.20;96.80;;;;;;6312600;22;20050;-79
2023/12/28 09:07:32;;;;;;;7.90;1.90;;;11.30;97.00;;;;;;6312808;22;20017;-80
2023/12/28 09:09:59;;;;;;;7.88;1.08;;;11.20;97.10;;;;;;6340209;22;20015;-79
2023/12/28 09:12:26;;;;;;;7.80;1.05;;;11.20;97.10;;;;;;6313106;22;20019;-79
2023/12/28 09:14:53;;;;;;;6.00;1.10;;;11.20;97.00;;;;;;6287349;22;20025;-79
2023/12/28 09:17:23;;;;;;;8.95;1.00;;;11.20;97.00;;;;;;6287236;22;20075;-79
2023/12/28 09:19:50;;;;;;;6.32;1.75;;;11.20;97.20;;;;;;6339999;22;20026;-79
2023/12/28 09:22:18;;;;;;;6.30;1.63;;;11.20;96.90;;;;;;6284456;22;20082;-79
2023/12/28 09:24:44;;;;;;;14.07;1.83;;;11.20;96.70;;;;;;6312764;22;20026;-79
2023/12/28 09:27:12;;;;;;;9.75;1.30;;;11.20;96.50;;;;;;6312785;22;20018;-78
2023/12/28 09:29:39;;;;;;;9.88;1.25;;;11.20;96.50;;;;;;6286722;22;20084;-80
2023/12/28 09:32:06;;;;;;;9.15;1.20;;;11.20;96.40;;;;;;6286555;22;20019;-80
2023/12/28 09:34:33;;;;;;;8.30;1.50;;;11.30;96.50;;;;;;6286450;22;20023;-78
2023/12/28 09:37:00;;;;;;;10.32;1.35;;;11.30;96.50;;;;;;6287096;22;20383;-80
2023/12/28 09:39:28;;;;;;;10.57;1.67;;;11.30;96.20;;;;;;6285928;22;20054;-80
2023/12/28 09:42:01;;;;;;;11.38;1.45;;;11.40;95.90;;;;;;6339568;22;20037;-77
2023/12/28 09:44:30;;;;;;;9.88;1.50;;;11.40;95.90;;;;;;6286501;22;20018;-78
2023/12/28 09:46:57;;;;;;;14.98;2.42;;;11.40;96.10;;;;;;6312178;22;20046;-80
2023/12/28 09:49:24;;;;;;;15.48;1.73;;;11.50;95.90;;;;;;6286872;22;20073;-80
2023/12/28 09:51:52;;;;;;;5.68;1.20;;;11.50;95.70;;;;;;6261263;22;20023;-78
2023/12/28 09:54:19;;;;;;;6.10;1.52;;;11.60;95.70;;;;;;6284361;22;20046;-78
2023/12/28 09:56:46;;;;;;;6.82;1.38;;;11.60;95.70;;;;;;6286754;22;20030;-78
2023/12/28 09:59:16;;;;;;;9.10;1.42;;;11.60;95.80;;;;;;6286878;22;20019;-78
2023/12/28 10:01:46;;;;;;;;;;;11.60;95.60;;;;;;6288376;22;20074;-80
2023/12/28 10:04:15;;;;;;;11.52;1.27;;;11.70;95.30;;;;;;6312586;22;19914;-79
2023/12/28 10:06:42;;;;;;;9.48;2.10;;;11.60;95.30;;;;;;6312538;22;20014;-79
2023/12/28 10:09:10;;;;;;;9.48;2.45;;;11.60;95.10;;;;;;6293197;22;20049;-79
2023/12/28 10:11:37;;;;;;;9.88;2.40;;;11.70;95.30;;;;;;6323026;22;20400;-78
2023/12/28 10:14:06;;;;;;;7.30;1.58;;;11.70;95.00;;;;;;6296537;22;20452;-80
2023/12/28 10:16:34;;;;;;;10.00;1.45;;;11.70;95.00;;;;;;6284821;22;20042;-78
2023/12/28 10:19:01;;;;;;;8.32;1.35;;;11.60;94.90;;;;;;6334584;22;20468;-78
2023/12/28 10:21:28;;;;;;;6.80;0.90;;;11.60;95.10;;;;;;6312317;22;20065;-78
2023/12/28 10:23:55;;;;;;;8.05;1.27;;;11.60;95.30;;;;;;6286919;22;20429;-78
2023/12/28 10:26:23;;;;;;;8.23;1.00;;;11.60;95.30;;;;;;6312762;22;20015;-88
2023/12/28 10:28:56;;;;;;;12.43;1.27;;;11.60;95.10;;;;;;6281495;22;20020;-78
2023/12/28 10:31:23;;;;;;;8.73;1.35;;;11.60;95.10;;;;;;6312687;22;20026;-86
2023/12/28 10:33:52;;;;;;;9.18;1.50;;;11.60;95.10;;;;;;6281995;22;20023;-86
2023/12/28 10:36:21;;;;;;;8.57;1.13;;;11.60;94.90;;;;;;6307643;22;20023;-80
2023/12/28 10:38:53;;;;;;;6.95;1.45;;;11.60;94.90;;;;;;6312109;22;20022;-81
2023/12/28 10:41:21;;;;;;;8.80;1.73;;;11.60;94.60;;;;;;6312074;22;20026;-82
2023/12/28 10:44:05;;;;;;;5.63;1.10;;;11.70;94.70;;;;;;6281572;22;20066;-82
2023/12/28 10:46:43;;;;;;;11.25;1.10;;;11.70;94.60;;;;;;6270611;22;20122;-91
2023/12/28 10:49:15;;;;;;;6.78;1.63;;;11.80;94.70;;;;;;6262076;22;20322;-82
2023/12/28 10:51:45;;;;;;;8.15;1.20;;;11.80;94.40;;;;;;6337721;22;20047;-82
2023/12/28 10:54:47;;;;;;;14.38;1.35;;;11.80;94.00;;;;;;6285647;22;20391;-88
2023/12/28 10:57:27;;;;;;;10.95;1.98;;;11.90;93.70;;;;;;6305531;22;20025;-86
2023/12/28 11:00:14;;;;;;;10.88;1.65;;;11.90;94.00;;;;;;6286973;22;20079;-85
2023/12/28 11:02:56;;;;;;;13.88;2.40;;;11.90;93.70;;;;;;6286023;22;20015;-84
2023/12/28 11:05:24;;;;;;;7.32;0.93;;;11.90;94.00;;;;;;6286083;22;20114;-81
2023/12/28 11:07:56;;;;;;;10.50;1.92;;;11.90;94.20;;;;;;6311864;22;20025;-75
2023/12/28 11:10:24;;;;;;;9.38;1.35;;;11.90;94.20;;;;;;6311194;22;20015;-76
2023/12/28 11:12:56;;;;;;;10.75;1.73;;;11.90;94.00;;;;;;6285756;22;20022;-76
2023/12/28 11:15:26;;;;;;;9.85;1.38;;;11.90;94.10;;;;;;6339929;22;20432;-89
2023/12/28 11:18:07;;;;;;;13.25;1.42;;;11.90;93.60;;;;;;6287520;22;20050;-95
2023/12/28 11:20:34;;;;;;;10.25;1.52;;;12.00;93.40;;;;;;6287278;22;20022;-84
2023/12/28 11:23:02;;;;;;;8.90;1.90;;;12.00;93.10;;;;;;6260908;22;20019;-85
2023/12/28 11:25:32;;;;;;;12.25;1.30;;;11.90;92.90;;;;;;6307024;22;20099;-89
2023/12/28 11:28:08;;;;;;;12.55;1.15;;;11.90;92.80;;;;;;6256798;22;20011;-88
2023/12/28 11:30:36;;;;;;;5.78;1.08;;;11.90;92.70;;;;;;6306330;22;20493;-89
2023/12/28 11:33:05;;;;;;;12.93;1.73;;;11.90;92.70;;;;;;6281533;22;20027;-81
2023/12/28 11:35:39;;;;;;;9.48;1.50;;;11.90;92.70;;;;;;6280878;22;20023;-81
2023/12/28 11:38:09;;;;;;;6.80;1.30;;;11.90;92.80;;;;;;6308363;22;20077;-85
2023/12/28 11:40:45;;;;;;;7.38;1.63;;;12.00;93.00;;;;;;6312076;22;20021;-86
2023/12/28 11:43:19;;;;;;;5.80;1.08;;;12.00;93.00;;;;;;6311115;22;20081;-79
2023/12/28 11:45:54;;;;;;;7.50;1.30;;;12.10;93.00;;;;;;6310980;22;20046;-79
2023/12/28 11:48:28;;;;;;;11.13;1.35;;;12.00;92.80;;;;;;6311568;22;20349;-89
2023/12/28 11:51:00;;;;;;;7.68;1.55;;;12.00;92.60;;;;;;6261704;22;20077;-75
2023/12/28 11:53:35;;;;;;;12.97;1.57;;;12.10;92.60;;;;;;6311698;22;20072;-94
2023/12/28 11:56:09;;;;;;;9.95;1.63;;;12.00;92.50;;;;;;6312523;22;20068;-83
2023/12/28 11:58:36;;;;;;;10.70;1.83;;;12.00;92.30;;;;;;6285640;22;20023;-86
2023/12/28 12:01:03;;;;;;;6.50;1.20;;;11.90;92.40;;;;;;6286115;22;20026;-84
2023/12/28 12:03:30;;;;;;;6.50;1.40;;;11.90;92.40;;;;;;6261118;22;20019;-85
2023/12/28 12:05:58;;;;;;;10.02;1.20;;;11.90;92.50;;;;;;6287025;22;20044;-85
2023/12/28 12:08:25;;;;;;;5.85;1.02;;;11.80;92.70;;;;;;6288360;22;20023;-84
2023/12/28 12:11:05;;;;;;;11.13;1.73;;;11.80;92.90;;;;;;6287476;22;20015;-80
2023/12/28 12:13:33;;;;;;;13.18;1.30;;;11.80;92.90;;;;;;6313642;22;20437;-82
2023/12/28 12:16:05;;;;;;;9.25;1.80;;;11.80;93.00;;;;;;6313607;22;20015;-77
2023/12/28 12:18:33;;;;;;;15.38;2.00;;;11.80;93.00;;;;;;6289660;22;20019;-85
2023/12/28 12:21:02;;;;;;;7.95;1.48;;;11.80;92.80;;;;;;6288796;22;20014;-85
2023/12/28 12:23:30;;;;;;;8.90;1.63;;;11.80;92.80;;;;;;6287488;22;20064;-80
2023/12/28 12:25:57;;;;;;;6.35;1.08;;;11.80;93.00;;;;;;6262419;22;20344;-80
2023/12/28 12:28:24;;;;;;;11.45;1.42;;;11.80;93.30;;;;;;6287260;22;20025;-80
2023/12/28 12:30:56;;;;;;;9.40;1.20;;;11.80;93.20;;;;;;6287789;22;20018;-80
2023/12/28 12:33:24;;;;;;;12.65;1.55;;;11.80;93.00;;;;;;6287645;22;20023;-81
2023/12/28 12:35:52;;;;;;;10.40;1.55;;;11.80;93.00;;;;;;6312823;22;20437;-81
2023/12/28 12:38:19;;;;;;;6.60;0.90;;;11.80;92.90;;;;;;6287037;22;20034;-81
2023/12/28 12:40:46;;;;;;;6.60;1.00;;;11.80;92.70;;;;;;6287270;22;20457;-82
2023/12/28 12:43:14;;;;;;;9.02;1.45;;;11.80;92.90;;;;;;6287108;22;20011;-80
2023/12/28 12:45:41;;;;;;;11.27;1.55;;;11.80;93.10;;;;;;6261924;22;20019;-86
2023/12/28 12:48:08;;;;;;;8.63;1.90;;;11.80;93.00;;;;;;6287093;22;20050;-80
2023/12/28 12:50:36;;;;;;;10.82;1.85;;;11.80;93.10;;;;;;6287567;22;20322;-74
2023/12/28 12:53:06;;;;;;;5.30;1.20;;;11.80;93.00;;;;;;6313404;22;20018;-87